»·PEaware :: AAL295 KEUG-KPDX

AAL295 :: KEUG-KPDX

FLIGHT INFORMATION

Flight Status: Arrived
Operator:
American Airlines
More flights by this operator :: More flights under this callsign
Pilot: Sergei F. (8485)
Aircraft: AIRBUS A320
(A320)
More flights by this aircraft type
Origin: KEUG Mahlon Sweet
United States
Destination: KPDX Portland Intl
United States
More flights between these airports :: More routes between these airports
Route: +EUG1 CITYY TMBRS2
File this flight plan on PilotEdge
Remarks:
Altitude:
(Current/Filed)
20,000ft
Speed:
(Current/Filed)
300kts
Departed: 24-Nov-18 05:55 PM
Arrived: 24-Nov-18 06:26 PM
Distance/Time
Traveled:
92nm/0:31
Distance/Time
To Go:
Arrived

Flight Plot

Page will automatically refresh every two minutes.

Flight plan parsing failed; only flown route is shown


Map Options




Map Legend


Flown Route
Filed Route
Departure Airport
Arrival Airport
Navaid (VOR, NDB)
Fix

Horizontal Profiles

Position Reports

Time Latitude Longitude Heading Altitude Ground
Speed
24-Nov-18 17:04 44.120242 -123.213899 201 372ft 0kts
24-Nov-18 17:05 44.120242 -123.213899 201 372ft 0kts
24-Nov-18 17:06 44.120242 -123.213899 201 372ft 0kts
24-Nov-18 17:07 44.120242 -123.213899 201 372ft 0kts
24-Nov-18 17:08 44.120242 -123.213899 201 372ft 0kts
24-Nov-18 17:09 44.120242 -123.213899 201 372ft 0kts
24-Nov-18 17:10 44.120242 -123.213899 201 372ft 0kts
24-Nov-18 17:11 44.120242 -123.213899 201 372ft 0kts
24-Nov-18 17:12 44.120242 -123.213899 201 372ft 0kts
24-Nov-18 17:13 44.120242 -123.213899 201 372ft 0kts
24-Nov-18 17:14 44.120242 -123.213899 201 372ft 0kts
24-Nov-18 17:15 44.120242 -123.213899 201 372ft 0kts
24-Nov-18 17:16 44.120242 -123.213899 201 372ft 0kts
24-Nov-18 17:17 44.120242 -123.213899 201 372ft 0kts
24-Nov-18 17:18 44.120242 -123.213899 201 372ft 0kts
24-Nov-18 17:19 44.120242 -123.213899 201 372ft 0kts
24-Nov-18 17:20 44.120242 -123.213899 201 372ft 0kts
24-Nov-18 17:21 44.120242 -123.213899 201 372ft 0kts
24-Nov-18 17:22 44.120242 -123.213899 201 372ft 0kts
24-Nov-18 17:23 44.120242 -123.213899 201 372ft 0kts
24-Nov-18 17:24 44.120242 -123.213899 201 372ft 0kts
24-Nov-18 17:25 44.120242 -123.213899 201 372ft 0kts
24-Nov-18 17:26 44.120242 -123.213899 201 372ft 0kts
24-Nov-18 17:27 44.120242 -123.213899 201 372ft 0kts
24-Nov-18 17:28 44.120242 -123.213899 201 372ft 0kts
24-Nov-18 17:29 44.120242 -123.213899 201 372ft 0kts
24-Nov-18 17:30 44.120242 -123.213899 201 372ft 0kts
24-Nov-18 17:31 44.120242 -123.213899 201 372ft 0kts
24-Nov-18 17:32 44.120242 -123.213899 201 372ft 0kts
24-Nov-18 17:33 44.120242 -123.213899 201 372ft 0kts
24-Nov-18 17:34 44.120242 -123.213899 201 372ft 0kts
24-Nov-18 17:35 44.120242 -123.213899 201 372ft 0kts
24-Nov-18 17:36 44.120242 -123.213899 201 372ft 0kts
24-Nov-18 17:37 44.120242 -123.213899 201 372ft 0kts
24-Nov-18 17:38 44.120242 -123.213899 201 372ft 0kts
24-Nov-18 17:39 44.120242 -123.213899 201 372ft 0kts
24-Nov-18 17:40 44.120242 -123.213899 201 372ft 0kts
24-Nov-18 17:41 44.120242 -123.213899 201 372ft 0kts
24-Nov-18 17:42 44.120242 -123.213899 201 372ft 0kts
24-Nov-18 17:43 44.120243 -123.213899 201 372ft 0kts
24-Nov-18 17:44 44.120643 -123.213680 201 372ft 2kts
24-Nov-18 17:45 44.120873 -123.213005 295 372ft 1kts
24-Nov-18 17:46 44.120829 -123.212900 300 372ft 0kts
24-Nov-18 17:47 44.120829 -123.212901 300 372ft 0kts
24-Nov-18 17:48 44.120829 -123.212901 300 372ft 0kts
24-Nov-18 17:49 44.120829 -123.212901 300 372ft 0kts
24-Nov-18 17:50 44.120846 -123.212940 300 372ft 1kts
24-Nov-18 17:51 44.121441 -123.214535 331 370ft 6kts
24-Nov-18 17:52 44.124433 -123.216983 338 368ft 9kts
24-Nov-18 17:53 44.127992 -123.217114 359 364ft 16kts
24-Nov-18 17:54 44.132738 -123.217183 359 361ft 17kts
24-Nov-18 17:55 44.135139 -123.217296 330 360ft 3kts
24-Nov-18 17:56 44.135314 -123.217762 270 360ft 0kts
24-Nov-18 17:57 44.135277 -123.219029 237 360ft 4kts
24-Nov-18 17:58 44.121428 -123.218918 178 371ft 161kts
24-Nov-18 17:59 44.072041 -123.219657 180 2914ft 197kts
24-Nov-18 18:00 44.006861 -123.220407 164 4667ft 268kts
24-Nov-18 18:01 43.982468 -123.139770 54 7344ft 267kts
24-Nov-18 18:02 44.047365 -123.093431 19 10056ft 275kts
24-Nov-18 18:03 44.124158 -123.051684 19 11437ft 330kts
24-Nov-18 18:04 44.216167 -123.001032 19 12014ft 387kts
24-Nov-18 18:05 44.316838 -122.945401 20 12020ft 393kts
24-Nov-18 18:06 44.412944 -122.892088 20 12020ft 395kts
24-Nov-18 18:07 44.507474 -122.842088 19 12027ft 394kts
24-Nov-18 18:08 44.607727 -122.789785 19 12021ft 394kts
24-Nov-18 18:09 44.709875 -122.736184 19 12020ft 394kts
24-Nov-18 18:10 44.812638 -122.687481 5 12022ft 393kts
24-Nov-18 18:11 44.916239 -122.676906 2 12047ft 342kts
24-Nov-18 18:12 45.002112 -122.668310 2 12055ft 292kts
24-Nov-18 18:13 45.082822 -122.660026 2 12057ft 294kts
24-Nov-18 18:14 45.163478 -122.651762 2 12058ft 296kts
24-Nov-18 18:15 45.244198 -122.644038 354 11240ft 289kts
24-Nov-18 18:16 45.317951 -122.680482 337 9884ft 280kts
24-Nov-18 18:17 45.388627 -122.719278 337 8579ft 275kts
24-Nov-18 18:18 45.455808 -122.756217 337 6971ft 267kts
24-Nov-18 18:19 45.517869 -122.790339 338 5249ft 253kts
24-Nov-18 18:20 45.571588 -122.824688 326 4240ft 231kts
24-Nov-18 18:21 45.614941 -122.866090 326 3775ft 213kts
24-Nov-18 18:22 45.654847 -122.902761 343 3184ft 205kts
24-Nov-18 18:23 45.680480 -122.867716 90 3024ft 166kts
24-Nov-18 18:24 45.670680 -122.815608 117 3006ft 160kts
24-Nov-18 18:25 45.652379 -122.767942 118 2023ft 155kts
24-Nov-18 18:26 45.631214 -122.713955 118 1505ft 155kts
24-Nov-18 18:27 45.610770 -122.661418 118 688ft 152kts
24-Nov-18 18:28 45.590749 -122.610328 117 26ft 112kts
24-Nov-18 18:29 45.587909 -122.600271 76 22ft 0kts
24-Nov-18 18:30 45.588030 -122.597707 90 25ft 8kts
24-Nov-18 18:31 45.588667 -122.596917 27 26ft 0kts
24-Nov-18 18:32 45.588667 -122.596917 27 26ft 0kts
24-Nov-18 18:33 45.588667 -122.596917 27 26ft 0kts
24-Nov-18 18:34 45.588667 -122.596917 27 26ft 0kts
24-Nov-18 18:35 45.588667 -122.596917 27 26ft 0kts
24-Nov-18 18:36 45.588667 -122.596917 27 26ft 0kts
24-Nov-18 18:37 45.588667 -122.596917 27 26ft 0kts
24-Nov-18 18:38 45.588667 -122.596917 27 26ft 0kts
24-Nov-18 18:39 45.588667 -122.596917 27 26ft 0kts

Navigation Log

Ident Type
Flight plan parsing failed, navigation log unavailable